Time;durP1;ratioP1;P1;durP2;ratioP2;P2;SDS_P1;SDS_P2;PMS_P1;PMS_P2;Temp;Humidity;BMP_temperature;BMP_pressure;BME280_temperature;BME280_humidity;BME280_pressure;Samples;Min_cycle;Max_cycle;Signal;HPM_P1;HPM_P2
2021/06/21 00:01:04;;;;;;;6.78;4.35;;;20.30;90.90;;;;;;5038559;28;20085;-87
2021/06/21 00:06:51;;;;;;;6.55;5.05;;;19.80;92.80;;;;;;5088166;28;20090;-86
2021/06/21 00:12:41;;;;;;;7.65;5.40;;;19.60;92.40;;;;;;5093535;28;20043;-86
2021/06/21 00:15:18;;;;;;;6.45;5.72;;;19.50;93.30;;;;;;5075266;28;20066;-87
2021/06/21 00:17:43;;;;;;;9.48;5.88;;;19.50;93.40;;;;;;5055293;28;20108;-86
2021/06/21 00:20:10;;;;;;;10.63;7.53;;;19.50;93.70;;;;;;5056704;28;20121;-87
2021/06/21 00:25:57;;;;;;;10.05;7.28;;;19.30;94.00;;;;;;5093899;28;20059;-87
2021/06/21 00:28:23;;;;;;;11.80;7.93;;;19.30;94.20;;;;;;5076618;28;20484;-87
2021/06/21 00:30:48;;;;;;;9.50;7.75;;;19.20;94.90;;;;;;5094530;28;20035;-86
2021/06/21 00:33:14;;;;;;;13.40;8.40;;;19.20;94.80;;;;;;5094719;28;20349;-86
2021/06/21 00:35:40;;;;;;;9.68;8.43;;;19.30;94.90;;;;;;5096429;28;20049;-87
2021/06/21 00:38:06;;;;;;;11.73;8.73;;;19.30;96.10;;;;;;5062417;28;20028;-86
2021/06/21 00:43:53;;;;;;;9.77;7.95;;;19.30;94.80;;;;;;5097075;28;20031;-84
2021/06/21 00:53:03;;;;;;;9.50;8.55;;;19.30;95.40;;;;;;5076819;28;20035;-85
2021/06/21 00:55:28;;;;;;;11.18;9.70;;;19.30;95.30;;;;;;5058462;28;20036;-85
2021/06/21 00:57:54;;;;;;;11.02;9.65;;;19.30;95.10;;;;;;5064793;28;20085;-84
2021/06/21 01:00:22;;;;;;;10.93;9.80;;;19.30;95.10;;;;;;5076773;28;20027;-84
2021/06/21 01:02:47;;;;;;;13.95;10.30;;;19.30;95.10;;;;;;5074925;28;20079;-85
2021/06/21 01:05:16;;;;;;;12.68;10.38;;;19.30;95.10;;;;;;5060270;28;20060;-85
2021/06/21 01:07:42;;;;;;;12.57;11.27;;;19.30;95.10;;;;;;5061565;28;20420;-84
2021/06/21 01:10:08;;;;;;;12.60;11.30;;;19.30;95.30;;;;;;5061680;28;20027;-83
2021/06/21 01:12:46;;;;;;;13.73;12.32;;;19.30;95.00;;;;;;5061083;28;20028;-84
2021/06/21 01:15:14;;;;;;;14.23;12.30;;;19.30;95.10;;;;;;5095220;28;20047;-84
2021/06/21 01:18:00;;;;;;;14.60;12.13;;;19.30;95.20;;;;;;5061452;28;20024;-84
2021/06/21 01:20:47;;;;;;;17.88;12.80;;;19.30;95.10;;;;;;5081213;28;20051;-84
2021/06/21 01:30:12;;;;;;;21.75;17.63;;;19.20;97.10;;;;;;5076104;28;20063;-84
2021/06/21 01:32:44;;;;;;;24.95;19.73;;;18.80;98.30;;;;;;5067161;28;20020;-84
2021/06/21 01:38:43;;;;;;;33.13;25.92;;;18.60;99.40;;;;;;5076235;28;20140;-83
2021/06/21 01:41:15;;;;;;;39.83;29.00;;;18.60;99.80;;;;;;5076322;28;20046;-81
2021/06/21 01:43:41;;;;;;;48.53;32.35;;;18.60;99.90;;;;;;5061088;28;20020;-83
2021/06/21 01:46:09;;;;;;;84.97;46.33;;;18.60;99.90;;;;;;5057090;28;20052;-82
2021/06/21 01:48:48;;;;;;;56.95;37.60;;;18.60;99.90;;;;;;5041291;28;20039;-82
2021/06/21 01:51:43;;;;;;;55.05;38.65;;;18.60;99.90;;;;;;5041963;28;20040;-83
2021/06/21 01:54:09;;;;;;;50.88;34.63;;;18.60;99.90;;;;;;5093827;28;20157;-83
2021/06/21 01:56:47;;;;;;;53.47;32.35;;;18.70;99.90;;;;;;5061074;28;20085;-81
2021/06/21 01:59:13;;;;;;;52.30;35.38;;;18.70;99.90;;;;;;5077742;28;20158;-82
2021/06/21 02:01:39;;;;;;;44.80;33.67;;;18.60;99.90;;;;;;5077492;28;20111;-84
2021/06/21 02:04:06;;;;;;;53.67;38.15;;;18.60;99.90;;;;;;5061209;28;20133;-81
2021/06/21 02:06:32;;;;;;;50.38;39.15;;;18.50;99.90;;;;;;5060801;28;20023;-83
2021/06/21 02:09:13;;;;;;;59.15;42.70;;;18.40;99.90;;;;;;5095370;28;20016;-83
2021/06/21 02:11:39;;;;;;;53.72;41.85;;;18.50;99.90;;;;;;5090465;28;20024;-83
2021/06/21 02:17:27;;;;;;;54.17;40.47;;;18.50;99.90;;;;;;5095083;28;20023;-82
2021/06/21 02:19:53;;;;;;;52.08;38.47;;;18.50;99.90;;;;;;5077220;28;20115;-82
2021/06/21 02:25:41;;;;;;;61.60;41.63;;;18.60;99.90;;;;;;5094946;28;20030;-82
2021/06/21 02:32:12;;;;;;;44.90;35.03;;;18.70;99.90;;;;;;5095182;28;20066;-82
2021/06/21 02:34:38;;;;;;;53.78;40.15;;;18.70;99.90;;;;;;5095269;28;20459;-82
2021/06/21 02:37:58;;;;;;;45.85;38.80;;;18.80;99.90;;;;;;5076473;28;20056;-81
2021/06/21 02:40:25;;;;;;;46.03;37.80;;;18.80;99.90;;;;;;5073381;28;20040;-82
2021/06/21 02:46:13;;;;;;;50.53;41.08;;;18.80;99.90;;;;;;5074664;28;20023;-82
2021/06/21 02:48:39;;;;;;;47.38;39.65;;;18.70;99.90;;;;;;5072070;28;20023;-82
2021/06/21 02:51:05;;;;;;;41.22;35.40;;;18.70;99.90;;;;;;5093570;28;20059;-82
2021/06/21 02:53:52;;;;;;;48.28;38.60;;;18.70;99.90;;;;;;5075538;28;20043;-82
2021/06/21 02:56:20;;;;;;;56.35;42.13;;;18.70;99.90;;;;;;5075820;28;20032;-82
2021/06/21 02:58:46;;;;;;;50.38;40.35;;;18.70;99.90;;;;;;5094619;28;20444;-83
2021/06/21 03:01:15;;;;;;;55.60;44.33;;;18.70;99.90;;;;;;5072760;28;20032;-82
2021/06/21 03:03:51;;;;;;;59.33;44.58;;;18.70;99.90;;;;;;5054337;28;20024;-82
2021/06/21 03:06:17;;;;;;;41.70;35.17;;;18.70;99.90;;;;;;5060480;28;20024;-83
2021/06/21 03:12:05;;;;;;;43.40;36.42;;;18.80;99.90;;;;;;5093556;28;20023;-82
2021/06/21 03:14:31;;;;;;;58.38;44.33;;;18.80;99.90;;;;;;5060175;28;20028;-83
2021/06/21 03:16:57;;;;;;;54.05;40.78;;;18.80;99.90;;;;;;5059201;28;20027;-85
2021/06/21 03:19:24;;;;;;;46.30;37.40;;;18.80;99.90;;;;;;5075704;28;20070;-85
2021/06/21 03:21:49;;;;;;;57.60;42.75;;;18.80;99.90;;;;;;5075859;28;20034;-85
2021/06/21 03:24:15;;;;;;;68.63;47.80;;;18.90;99.90;;;;;;5059866;28;20043;-85
2021/06/21 03:26:41;;;;;;;57.78;43.85;;;18.90;99.90;;;;;;5055335;28;20020;-84
2021/06/21 03:29:17;;;;;;;58.60;43.28;;;18.90;99.90;;;;;;5056055;28;20130;-84
2021/06/21 03:31:44;;;;;;;64.25;45.60;;;18.90;99.90;;;;;;5055773;28;20016;-85
2021/06/21 03:34:11;;;;;;;51.35;39.70;;;19.00;99.90;;;;;;5059947;28;20034;-84
2021/06/21 03:36:36;;;;;;;46.10;37.28;;;19.00;99.90;;;;;;5075813;28;20044;-84
2021/06/21 03:42:24;;;;;;;32.55;28.23;;;19.00;99.90;;;;;;5093579;28;20073;-84
2021/06/21 03:48:12;;;;;;;30.48;27.20;;;19.00;99.90;;;;;;5097968;28;20493;-84
2021/06/21 03:50:38;;;;;;;37.63;30.92;;;19.00;99.90;;;;;;5062625;28;20066;-84
2021/06/21 03:53:04;;;;;;;43.60;34.53;;;19.00;99.90;;;;;;5055737;28;20088;-83
2021/06/21 03:55:30;;;;;;;42.50;34.47;;;19.00;99.90;;;;;;5056950;28;20130;-84
2021/06/21 03:57:56;;;;;;;32.42;28.83;;;19.00;99.90;;;;;;5064755;28;20471;-84
2021/06/21 04:00:24;;;;;;;36.88;31.00;;;19.00;99.90;;;;;;5051661;28;20032;-82
2021/06/21 04:02:49;;;;;;;34.08;30.42;;;19.00;99.90;;;;;;5061869;28;20040;-83
2021/06/21 04:05:15;;;;;;;42.28;34.47;;;19.00;99.90;;;;;;5044853;28;20047;-83
2021/06/21 04:07:41;;;;;;;59.38;42.30;;;19.00;99.90;;;;;;5076539;28;20059;-83
2021/06/21 04:10:08;;;;;;;41.58;33.63;;;19.10;99.90;;;;;;5062002;28;20368;-83
2021/06/21 04:12:37;;;;;;;30.10;23.30;;;19.20;99.90;;;;;;5065217;28;20047;-82
2021/06/21 04:15:09;;;;;;;46.30;36.08;;;19.20;99.90;;;;;;5079179;28;20024;-82
2021/06/21 04:17:35;;;;;;;57.45;38.53;;;19.30;99.90;;;;;;5059538;28;20194;-83
2021/06/21 04:20:02;;;;;;;42.30;34.75;;;19.30;99.90;;;;;;5065064;28;20178;-82
2021/06/21 04:22:28;;;;;;;29.73;26.48;;;19.30;99.90;;;;;;5046061;28;20032;-83
2021/06/21 04:24:58;;;;;;;34.35;28.98;;;19.30;99.90;;;;;;5087151;28;20403;-83
2021/06/21 04:27:24;;;;;;;34.22;29.80;;;19.30;99.90;;;;;;5067673;28;20023;-84
2021/06/21 04:29:49;;;;;;;31.45;26.95;;;19.40;99.90;;;;;;5055580;28;20016;-85
2021/06/21 04:32:15;;;;;;;24.60;22.13;;;19.40;99.90;;;;;;5073679;28;20426;-82
2021/06/21 04:34:40;;;;;;;24.17;21.67;;;19.30;99.90;;;;;;5058637;28;20050;-85
2021/06/21 04:40:30;;;;;;;26.20;23.42;;;19.20;99.90;;;;;;5092921;28;20103;-84
2021/06/21 04:42:55;;;;;;;26.23;22.20;;;19.20;99.90;;;;;;5057830;28;20066;-83
2021/06/21 04:45:21;;;;;;;31.27;26.63;;;19.20;99.90;;;;;;5057613;28;20028;-82
2021/06/21 04:47:47;;;;;;;27.45;21.17;;;19.20;99.90;;;;;;5073353;28;20024;-83
2021/06/21 04:50:14;;;;;;;30.38;23.88;;;19.20;99.90;;;;;;5074257;28;20353;-84
2021/06/21 04:53:33;;;;;;;33.70;23.83;;;19.10;99.90;;;;;;5058147;28;20064;-83
2021/06/21 04:55:59;;;;;;;31.92;23.90;;;19.10;99.90;;;;;;5072786;28;20032;-84
2021/06/21 04:58:26;;;;;;;26.83;21.85;;;19.10;99.90;;;;;;5054811;28;20027;-85
2021/06/21 05:00:51;;;;;;;33.50;25.33;;;19.10;99.90;;;;;;5071497;28;20024;-84
2021/06/21 05:03:17;;;;;;;30.17;23.42;;;19.10;99.90;;;;;;5088904;28;20356;-84
2021/06/21 05:05:42;;;;;;;38.53;28.10;;;19.10;99.90;;;;;;5057343;28;20062;-84
2021/06/21 05:08:08;;;;;;;31.42;26.25;;;19.20;99.90;;;;;;5058019;28;20093;-87
2021/06/21 05:10:34;;;;;;;40.10;28.45;;;19.20;99.90;;;;;;5058843;28;20031;-85
2021/06/21 05:16:22;;;;;;;33.00;28.35;;;19.30;99.90;;;;;;5092983;28;20456;-84
2021/06/21 05:18:47;;;;;;;35.60;31.73;;;19.20;99.90;;;;;;5110005;28;20028;-85
2021/06/21 05:21:13;;;;;;;32.28;28.90;;;19.20;99.90;;;;;;5077784;28;20499;-85
2021/06/21 05:27:00;;;;;;;32.50;27.55;;;19.20;99.90;;;;;;5096461;28;20073;-86
2021/06/21 05:29:26;;;;;;;31.92;28.83;;;19.10;99.90;;;;;;5060750;28;20477;-87
2021/06/21 05:31:56;;;;;;;31.73;27.88;;;19.10;99.90;;;;;;5046625;28;20024;-86
2021/06/21 05:35:17;;;;;;;34.22;30.50;;;19.10;99.90;;;;;;5088357;28;20027;-83
2021/06/21 05:37:42;;;;;;;34.05;29.33;;;18.90;99.90;;;;;;5089232;28;20023;-82
2021/06/21 05:40:14;;;;;;;29.45;26.50;;;18.80;99.90;;;;;;5060195;28;20020;-86
2021/06/21 05:42:40;;;;;;;30.25;27.17;;;18.70;99.90;;;;;;5074144;28;20036;-85
2021/06/21 05:45:33;;;;;;;27.92;23.85;;;18.70;99.90;;;;;;5057058;28;20020;-84
2021/06/21 05:51:21;;;;;;;36.85;28.73;;;18.60;99.90;;;;;;5095923;28;20020;-89
2021/06/21 06:00:31;;;;;;;32.65;28.83;;;18.60;99.90;;;;;;5091217;28;20046;-92
2021/06/21 06:06:18;;;;;;;36.10;31.73;;;18.50;99.90;;;;;;5096110;28;20483;-91
2021/06/21 06:12:06;;;;;;;38.67;30.65;;;18.50;99.90;;;;;;5095569;28;20018;-91
2021/06/21 06:21:19;;;;;;;33.60;30.10;;;18.70;99.90;;;;;;5075208;28;20035;-90
2021/06/21 06:27:07;;;;;;;40.83;32.38;;;18.70;99.90;;;;;;5094640;28;20023;-88
2021/06/21 06:36:16;;;;;;;39.47;31.13;;;18.90;99.90;;;;;;5095446;28;20525;-90
2021/06/21 06:38:42;;;;;;;38.88;32.35;;;18.90;99.90;;;;;;5094113;28;20024;-89
2021/06/21 06:44:29;;;;;;;45.78;40.97;;;18.70;99.90;;;;;;5095202;28;20030;-88
2021/06/21 06:50:17;;;;;;;50.10;39.67;;;18.60;99.90;;;;;;5095020;28;20035;-88
2021/06/21 06:52:44;;;;;;;44.63;40.17;;;18.60;99.90;;;;;;5094781;28;20408;-90
2021/06/21 06:57:54;;;;;;;48.28;42.80;;;18.80;99.90;;;;;;5073896;28;20032;-88
2021/06/21 07:00:20;;;;;;;53.63;47.17;;;18.70;99.90;;;;;;5040137;28;20440;-89
2021/06/21 07:02:46;;;;;;;50.78;45.20;;;18.60;99.90;;;;;;5040043;28;20064;-86
2021/06/21 07:08:34;;;;;;;47.90;42.65;;;18.30;99.90;;;;;;5074338;28;20019;-84
2021/06/21 07:11:00;;;;;;;46.40;41.33;;;18.30;99.90;;;;;;5073138;28;20016;-84
2021/06/21 07:13:25;;;;;;;50.22;44.95;;;18.20;99.90;;;;;;5089180;28;20035;-84
2021/06/21 07:15:51;;;;;;;46.55;41.58;;;18.20;99.90;;;;;;5093256;28;20028;-84
2021/06/21 07:18:17;;;;;;;48.90;43.42;;;18.10;99.90;;;;;;5093616;28;20030;-84
2021/06/21 07:24:05;;;;;;;55.28;44.47;;;18.00;99.90;;;;;;5094808;28;20027;-83
2021/06/21 07:26:31;;;;;;;50.08;42.47;;;18.00;99.90;;;;;;5060125;28;20069;-82
2021/06/21 07:28:57;;;;;;;64.03;48.58;;;18.00;99.90;;;;;;5093992;28;20023;-83
2021/06/21 07:31:22;;;;;;;62.85;49.38;;;17.90;99.90;;;;;;5061961;28;20038;-83
2021/06/21 07:37:10;;;;;;;74.47;53.15;;;17.90;99.90;;;;;;5094407;28;20028;-84
2021/06/21 07:39:36;;;;;;;85.50;59.13;;;18.00;99.90;;;;;;5059463;28;20114;-85
2021/06/21 07:42:02;;;;;;;73.72;53.25;;;18.40;99.90;;;;;;5075525;28;20520;-86
2021/06/21 07:44:27;;;;;;;81.97;55.03;;;18.80;99.90;;;;;;5059211;28;20068;-86
2021/06/21 07:46:53;;;;;;;65.93;48.35;;;18.90;99.60;;;;;;5092762;28;20076;-84
2021/06/21 07:49:19;;;;;;;69.57;47.95;;;18.80;98.70;;;;;;5076254;28;20047;-85
2021/06/21 07:51:44;;;;;;;70.75;48.13;;;18.70;98.00;;;;;;5059119;28;20031;-87
2021/06/21 07:54:14;;;;;;;66.30;44.70;;;18.90;98.60;;;;;;5075715;28;20027;-85
2021/06/21 08:00:04;;;;;;;56.63;38.55;;;20.20;96.00;;;;;;5091565;28;20085;-85
2021/06/21 08:05:52;;;;;;;44.58;33.35;;;20.50;94.70;;;;;;5074086;28;20028;-83
2021/06/21 08:08:18;;;;;;;48.78;35.03;;;20.00;95.00;;;;;;5055692;28;20421;-84
2021/06/21 08:14:06;;;;;;;53.63;37.60;;;19.80;96.20;;;;;;5094622;28;20428;-87
2021/06/21 08:19:53;;;;;;;43.15;31.50;;;19.50;95.80;;;;;;5093580;28;20019;-86
2021/06/21 08:22:21;;;;;;;45.60;30.85;;;19.10;96.40;;;;;;5058115;28;20044;-85
2021/06/21 08:24:48;;;;;;;46.03;31.80;;;18.80;96.30;;;;;;5075845;28;20118;-88
2021/06/21 08:30:37;;;;;;;58.17;38.30;;;18.60;97.40;;;;;;5073030;28;20051;-85
2021/06/21 08:33:03;;;;;;;63.80;39.97;;;18.40;97.90;;;;;;5054643;28;20020;-87
2021/06/21 08:35:29;;;;;;;59.58;37.45;;;18.40;96.60;;;;;;5072002;28;20016;-84
2021/06/21 08:41:17;;;;;;;50.13;30.90;;;18.10;96.90;;;;;;5092724;28;20133;-87
2021/06/21 08:43:44;;;;;;;47.92;29.42;;;18.10;97.20;;;;;;5058824;28;20386;-88
2021/06/21 08:46:10;;;;;;;38.83;26.35;;;18.20;97.40;;;;;;5092177;28;20019;-87
2021/06/21 08:48:41;;;;;;;41.95;26.33;;;18.30;97.00;;;;;;5058681;28;20016;-88
2021/06/21 08:51:07;;;;;;;38.20;25.65;;;18.40;97.50;;;;;;5059555;28;20035;-89
2021/06/21 08:57:00;;;;;;;18.83;15.07;;;18.10;96.80;;;;;;5097341;28;20166;-89
2021/06/21 08:59:25;;;;;;;18.50;12.70;;;17.80;96.90;;;;;;5080388;28;20024;-88
2021/06/21 09:05:13;;;;;;;14.25;10.15;;;17.70;97.40;;;;;;5096748;28;20133;-87
2021/06/21 09:07:39;;;;;;;14.52;9.15;;;17.70;98.00;;;;;;5057280;28;20028;-84
2021/06/21 09:13:31;;;;;;;8.88;6.72;;;17.80;97.90;;;;;;5076351;28;20035;-85
2021/06/21 09:19:19;;;;;;;8.77;6.15;;;17.70;97.00;;;;;;5076433;28;20055;-85
2021/06/21 09:25:24;;;;;;;6.47;4.70;;;17.60;96.30;;;;;;5076766;28;20023;-86
2021/06/21 09:31:12;;;;;;;3.38;3.08;;;17.50;97.60;;;;;;5077263;28;20055;-88
2021/06/21 09:33:37;;;;;;;4.20;3.05;;;17.30;98.00;;;;;;5058960;28;20020;-89
2021/06/21 09:39:26;;;;;;;2.70;1.70;;;17.20;98.60;;;;;;5075995;28;20018;-85
2021/06/21 09:48:39;;;;;;;3.97;1.00;;;17.40;98.10;;;;;;5075630;28;20431;-85
2021/06/21 09:54:27;;;;;;;1.92;0.85;;;17.80;97.20;;;;;;5075547;28;20479;-85
2021/06/21 09:56:56;;;;;;;0.93;0.50;;;17.80;97.90;;;;;;5040810;28;20444;-84
2021/06/21 09:59:28;;;;;;;1.27;0.50;;;18.00;97.00;;;;;;5058266;28;20068;-84
2021/06/21 10:02:11;;;;;;;0.30;0.30;;;18.10;96.60;;;;;;5074203;28;20426;-84
2021/06/21 10:04:38;;;;;;;0.52;0.50;;;18.10;96.60;;;;;;5074657;28;20074;-84
2021/06/21 10:10:27;;;;;;;0.73;0.50;;;17.80;96.50;;;;;;5095750;28;20459;-86
2021/06/21 10:16:15;;;;;;;1.45;1.10;;;17.80;96.30;;;;;;5095111;28;20344;-88
2021/06/21 10:22:03;;;;;;;1.48;0.82;;;18.20;94.70;;;;;;5094749;28;20038;-86
2021/06/21 10:24:32;;;;;;;2.75;0.68;;;18.40;94.40;;;;;;5077186;28;20107;-87
2021/06/21 10:27:01;;;;;;;0.93;0.57;;;18.50;94.90;;;;;;5077997;28;20035;-86
2021/06/21 10:29:26;;;;;;;1.88;0.50;;;18.80;93.20;;;;;;5060936;28;20047;-85
2021/06/21 10:31:52;;;;;;;0.50;0.40;;;19.10;92.80;;;;;;5056627;28;20449;-86
2021/06/21 10:34:18;;;;;;;0.93;0.40;;;19.00;92.40;;;;;;5067931;28;20016;-87
2021/06/21 10:36:45;;;;;;;1.05;0.40;;;19.10;92.10;;;;;;5073566;28;20376;-87
2021/06/21 10:42:41;;;;;;;2.88;0.90;;;18.30;93.40;;;;;;5094949;28;20078;-88
2021/06/21 10:48:28;;;;;;;2.47;0.70;;;18.00;94.60;;;;;;5094702;28;20035;-87
2021/06/21 10:50:54;;;;;;;1.27;0.60;;;17.90;94.70;;;;;;5080563;28;20023;-88
2021/06/21 10:53:19;;;;;;;0.30;0.30;;;17.80;94.50;;;;;;5080972;28;20020;-87
2021/06/21 10:59:14;;;;;;;1.52;0.40;;;17.60;95.20;;;;;;5095783;28;20019;-89
2021/06/21 11:01:58;;;;;;;1.95;0.50;;;17.50;95.30;;;;;;5075822;28;20039;-90
2021/06/21 11:08:12;;;;;;;3.92;0.75;;;17.50;96.10;;;;;;5097107;28;20364;-89
2021/06/21 11:10:38;;;;;;;0.60;0.50;;;17.70;95.40;;;;;;5093380;28;20051;-89
2021/06/21 11:13:35;;;;;;;0.85;0.50;;;17.70;94.40;;;;;;5056023;28;20036;-90
2021/06/21 11:19:24;;;;;;;0.57;0.40;;;17.80;94.70;;;;;;5081091;28;20098;-90
2021/06/21 11:22:49;;;;;;;0.75;0.52;;;18.00;94.80;;;;;;5079601;28;20039;-85
2021/06/21 11:25:22;;;;;;;1.98;0.80;;;18.20;93.30;;;;;;4978470;28;20018;-89
2021/06/21 11:31:19;;;;;;;0.95;0.68;;;19.20;92.20;;;;;;5074047;28;20027;-86
2021/06/21 11:34:04;;;;;;;2.53;0.82;;;18.90;92.20;;;;;;5072255;28;20029;-89
2021/06/21 11:36:46;;;;;;;0.57;0.57;;;18.80;92.20;;;;;;5041705;28;20066;-88
2021/06/21 11:42:34;;;;;;;2.55;0.73;;;18.90;91.80;;;;;;5073510;28;20606;-86
2021/06/21 11:44:59;;;;;;;1.25;0.95;;;19.40;91.20;;;;;;5058540;28;20052;-86
2021/06/21 11:47:29;;;;;;;1.13;0.63;;;19.30;91.70;;;;;;5039788;28;20077;-86
2021/06/21 11:53:16;;;;;;;0.60;0.57;;;18.20;91.80;;;;;;5093898;28;20108;-87
2021/06/21 11:55:42;;;;;;;1.80;0.63;;;18.00;93.10;;;;;;5092723;28;20047;-85
2021/06/21 11:58:08;;;;;;;3.15;0.95;;;17.80;93.70;;;;;;5076756;28;20077;-91
2021/06/21 12:00:34;;;;;;;1.08;0.75;;;17.60;93.50;;;;;;5076251;28;20061;-89
2021/06/21 12:03:07;;;;;;;4.20;0.98;;;17.70;94.30;;;;;;5075917;28;20028;-88
2021/06/21 12:05:33;;;;;;;0.70;0.70;;;17.70;93.70;;;;;;5076251;28;20020;-89
2021/06/21 12:11:22;;;;;;;1.38;0.63;;;17.80;92.50;;;;;;5093933;28;20022;-87
2021/06/21 12:14:05;;;;;;;1.17;0.55;;;17.80;92.80;;;;;;5092578;28;20094;-90
2021/06/21 12:16:33;;;;;;;0.52;0.40;;;17.80;93.40;;;;;;5075443;28;20022;-88
2021/06/21 12:18:59;;;;;;;2.33;0.60;;;17.70;92.70;;;;;;5092432;28;20024;-88
2021/06/21 12:21:36;;;;;;;0.77;0.70;;;17.70;93.90;;;;;;5092350;28;20032;-88
2021/06/21 12:24:25;;;;;;;0.85;0.60;;;17.80;93.80;;;;;;5076256;28;20062;-88
2021/06/21 12:26:54;;;;;;;1.00;0.50;;;17.80;93.50;;;;;;5075054;28;20051;-90
2021/06/21 12:29:24;;;;;;;1.42;0.68;;;17.90;94.40;;;;;;5076350;28;20016;-88
2021/06/21 12:35:13;;;;;;;1.48;0.95;;;17.90;93.70;;;;;;5096501;28;20096;-88
2021/06/21 12:37:39;;;;;;;2.35;1.10;;;17.80;93.40;;;;;;5079838;28;20588;-87
2021/06/21 12:40:18;;;;;;;2.47;1.08;;;17.80;93.90;;;;;;5080022;28;20024;-88
2021/06/21 12:46:18;;;;;;;1.30;0.80;;;17.70;93.50;;;;;;5097736;28;20027;-87
2021/06/21 12:48:44;;;;;;;0.90;0.90;;;17.80;92.80;;;;;;5079658;28;20024;-88
2021/06/21 12:54:34;;;;;;;3.33;1.20;;;17.90;93.10;;;;;;5097301;28;20059;-89
2021/06/21 12:57:00;;;;;;;1.42;1.33;;;17.80;92.10;;;;;;5079541;28;20139;-87
2021/06/21 12:59:26;;;;;;;2.28;1.10;;;17.70;93.40;;;;;;5062019;28;20463;-87
2021/06/21 13:01:52;;;;;;;1.40;1.30;;;17.80;94.00;;;;;;5095630;28;20032;-87
2021/06/21 13:04:18;;;;;;;1.52;1.40;;;17.70;93.60;;;;;;5095680;28;20498;-88
2021/06/21 13:06:45;;;;;;;1.63;1.52;;;17.60;93.80;;;;;;5095849;28;20189;-89
2021/06/21 13:09:12;;;;;;;1.60;1.35;;;17.60;93.10;;;;;;5062754;28;20358;-89
2021/06/21 13:12:00;;;;;;;4.38;1.50;;;17.60;94.10;;;;;;5062160;28;20024;-87
2021/06/21 13:17:49;;;;;;;2.00;1.90;;;17.80;93.60;;;;;;5096741;28;20023;-86
2021/06/21 13:23:49;;;;;;;3.42;1.75;;;17.70;93.70;;;;;;5096900;28;20088;-86
2021/06/21 13:26:14;;;;;;;2.10;2.00;;;17.70;93.80;;;;;;5061849;28;20055;-87
2021/06/21 13:28:43;;;;;;;2.85;1.77;;;17.80;94.00;;;;;;5079285;28;20024;-86
2021/06/21 13:31:11;;;;;;;2.40;2.00;;;17.80;93.00;;;;;;5062656;28;20020;-86
2021/06/21 13:33:46;;;;;;;1.92;1.83;;;17.80;93.10;;;;;;5062065;28;20383;-85
2021/06/21 13:36:12;;;;;;;2.00;1.80;;;17.70;93.30;;;;;;5062535;28;20088;-86
2021/06/21 13:42:02;;;;;;;2.00;1.90;;;18.00;92.60;;;;;;5094096;28;20521;-88
2021/06/21 13:44:56;;;;;;;2.70;2.40;;;18.30;92.50;;;;;;5073431;28;20194;-88
2021/06/21 13:48:11;;;;;;;2.10;1.90;;;18.50;91.90;;;;;;5080495;28;20016;-88
2021/06/21 13:54:07;;;;;;;1.70;1.60;;;19.00;91.60;;;;;;5096003;28;20100;-87
2021/06/21 13:59:54;;;;;;;1.70;1.60;;;19.70;88.00;;;;;;5095941;28;20380;-88
2021/06/21 14:05:42;;;;;;;1.48;1.23;;;20.20;85.80;;;;;;5096272;28;20117;-86
2021/06/21 14:11:29;;;;;;;1.10;1.10;;;20.00;83.80;;;;;;5095437;28;20038;-89
2021/06/21 14:17:19;;;;;;;1.80;1.70;;;20.20;86.30;;;;;;5095998;28;20068;-89
2021/06/21 14:23:08;;;;;;;1.60;1.50;;;20.10;86.60;;;;;;5096145;28;20038;-89
2021/06/21 14:28:56;;;;;;;2.50;2.30;;;20.00;84.50;;;;;;5095775;28;20469;-87
2021/06/21 14:31:22;;;;;;;2.90;2.70;;;19.60;86.40;;;;;;5095537;28;20103;-90
2021/06/21 14:33:49;;;;;;;2.53;2.33;;;19.50;88.40;;;;;;5061551;28;20020;-87
2021/06/21 14:36:14;;;;;;;1.80;1.70;;;19.40;89.00;;;;;;5062815;28;20035;-89
2021/06/21 14:42:03;;;;;;;2.10;1.90;;;19.20;88.00;;;;;;5096300;28;20035;-88
2021/06/21 14:47:53;;;;;;;3.30;2.40;;;19.20;89.00;;;;;;5097220;28;20122;-86
2021/06/21 14:50:19;;;;;;;2.80;2.60;;;19.20;89.00;;;;;;5062017;28;20031;-89
2021/06/21 14:52:46;;;;;;;2.92;2.60;;;19.30;87.20;;;;;;5079346;28;20028;-88
2021/06/21 14:55:14;;;;;;;2.83;2.60;;;19.50;87.30;;;;;;5080719;28;20020;-88
2021/06/21 14:57:41;;;;;;;3.33;2.50;;;19.40;87.00;;;;;;5067196;28;20062;-88
2021/06/21 15:00:09;;;;;;;3.40;3.15;;;19.40;88.40;;;;;;5062802;28;20029;-88
2021/06/21 15:05:56;;;;;;;7.50;6.80;;;19.60;86.10;;;;;;5097954;28;20027;-88
2021/06/21 15:11:45;;;;;;;9.32;8.43;;;19.20;86.60;;;;;;5096196;28;20077;-88
2021/06/21 15:14:11;;;;;;;11.20;10.10;;;19.00;87.50;;;;;;5095139;28;20047;-86
2021/06/21 15:26:42;;;;;;;7.07;6.38;;;19.00;87.20;;;;;;5094223;28;20055;-87
2021/06/21 15:29:08;;;;;;;8.20;7.47;;;19.00;87.50;;;;;;5093056;28;20048;-87
2021/06/21 15:31:38;;;;;;;8.82;8.02;;;18.90;88.70;;;;;;5059406;28;20032;-88
2021/06/21 15:34:04;;;;;;;9.30;8.45;;;19.00;88.20;;;;;;5060583;28;20555;-85
2021/06/21 15:36:29;;;;;;;8.63;7.93;;;18.80;86.40;;;;;;5092518;28;20055;-87
2021/06/21 15:38:55;;;;;;;9.90;8.82;;;18.90;87.70;;;;;;5059175;28;20408;-86
2021/06/21 15:41:21;;;;;;;10.77;9.80;;;18.90;87.70;;;;;;5075973;28;20357;-87
2021/06/21 15:43:46;;;;;;;11.00;10.00;;;18.70;87.50;;;;;;5075450;28;20023;-87
2021/06/21 15:46:12;;;;;;;10.93;9.93;;;18.60;86.90;;;;;;5092470;28;20449;-87
2021/06/21 15:48:40;;;;;;;10.25;9.25;;;18.50;90.10;;;;;;5059057;28;20368;-88
2021/06/21 15:51:35;;;;;;;10.90;10.00;;;18.50;90.00;;;;;;5085648;28;20023;-88
2021/06/21 15:54:04;;;;;;;9.93;9.13;;;18.50;90.60;;;;;;5083055;28;20031;-89
2021/06/21 15:56:30;;;;;;;9.90;9.05;;;18.50;90.00;;;;;;5073209;28;20086;-89
2021/06/21 15:58:56;;;;;;;12.30;11.23;;;18.50;90.10;;;;;;5054747;28;20016;-88
2021/06/21 16:02:06;;;;;;;12.57;11.48;;;18.60;89.50;;;;;;5066252;28;20028;-88
2021/06/21 16:04:32;;;;;;;14.68;12.10;;;18.70;88.00;;;;;;5090662;28;20015;-84
2021/06/21 16:07:00;;;;;;;13.13;11.75;;;19.00;87.00;;;;;;5073424;28;20496;-87
2021/06/21 16:09:26;;;;;;;12.63;11.30;;;19.20;84.30;;;;;;5074240;28;20111;-90
2021/06/21 16:11:51;;;;;;;11.82;10.73;;;19.20;85.10;;;;;;5072820;28;20134;-90
2021/06/21 16:14:17;;;;;;;13.55;12.25;;;19.00;84.80;;;;;;5091190;28;20044;-88
2021/06/21 16:17:26;;;;;;;14.63;13.23;;;18.70;85.80;;;;;;5057847;28;20016;-90
2021/06/21 16:19:54;;;;;;;15.00;13.38;;;18.70;87.20;;;;;;5083487;28;20012;-88
2021/06/21 16:22:19;;;;;;;15.10;13.18;;;18.60;87.40;;;;;;5059221;28;20024;-86
2021/06/21 16:35:07;;;;;;;14.88;11.27;;;19.20;85.30;;;;;;5092886;28;20112;-88
2021/06/21 16:40:55;;;;;;;8.98;8.18;;;19.40;85.10;;;;;;5099646;28;20043;-88
2021/06/21 16:43:21;;;;;;;7.15;6.55;;;19.60;83.50;;;;;;5058198;28;20036;-88
2021/06/21 16:45:46;;;;;;;6.75;6.18;;;19.60;83.30;;;;;;5056168;28;20449;-89
2021/06/21 16:54:56;;;;;;;5.32;3.22;;;19.90;83.90;;;;;;5093351;28;20077;-88
2021/06/21 16:57:22;;;;;;;1.83;1.67;;;19.80;82.80;;;;;;5058343;28;20020;-88
2021/06/21 16:59:47;;;;;;;1.98;1.80;;;20.00;83.30;;;;;;5058714;28;20062;-87
2021/06/21 17:02:13;;;;;;;1.92;1.58;;;19.70;82.80;;;;;;5074772;28;20024;-89
2021/06/21 17:08:00;;;;;;;2.63;0.90;;;19.20;85.80;;;;;;5092173;28;20070;-87
2021/06/21 17:10:28;;;;;;;2.97;0.90;;;19.00;84.70;;;;;;5058784;28;20440;-89
2021/06/21 17:13:42;;;;;;;0.60;0.60;;;18.80;84.10;;;;;;5062254;28;20024;-89
2021/06/21 17:23:03;;;;;;;1.10;0.77;;;18.60;84.40;;;;;;5096834;28;20111;-89
2021/06/21 17:32:12;;;;;;;1.10;0.60;;;18.60;84.40;;;;;;5096536;28;20060;-89
2021/06/21 17:35:05;;;;;;;0.73;0.70;;;18.40;84.40;;;;;;5095568;28;20024;-88
2021/06/21 17:37:31;;;;;;;1.08;0.60;;;18.40;84.80;;;;;;5075366;28;20341;-89
2021/06/21 17:39:57;;;;;;;2.75;0.80;;;18.30;85.50;;;;;;5060872;28;20115;-90
2021/06/21 17:45:46;;;;;;;2.60;1.10;;;18.30;86.30;;;;;;5076104;28;20158;-86
2021/06/21 17:48:23;;;;;;;1.13;1.00;;;18.10;85.80;;;;;;5074980;28;20024;-89
2021/06/21 17:54:11;;;;;;;0.77;0.75;;;18.20;86.80;;;;;;5096241;28;20031;-86
2021/06/21 17:56:37;;;;;;;1.63;1.10;;;18.20;86.00;;;;;;5060918;28;20028;-85
2021/06/21 17:59:40;;;;;;;1.20;0.70;;;18.20;86.00;;;;;;5060473;28;20077;-86
2021/06/21 18:02:44;;;;;;;1.48;1.10;;;18.40;87.80;;;;;;5080965;28;20032;-87
2021/06/21 18:08:33;;;;;;;1.10;1.00;;;18.30;85.40;;;;;;5095823;28;20018;-87
2021/06/21 18:14:20;;;;;;;1.83;1.63;;;18.30;85.80;;;;;;5086390;28;20093;-89
2021/06/21 18:16:46;;;;;;;1.67;1.58;;;18.20;86.10;;;;;;5077940;28;20450;-89
2021/06/21 18:19:33;;;;;;;1.92;1.80;;;18.30;86.70;;;;;;5076110;28;20051;-88